Calumet, IA (51009)

03:06 PM CDT del 21 Settembre 2014 (GMT -0500)
Cherokee Municipal | Change Station
CLOSE
Current Station
Aeroporto
Location: Cherokee,
Altitudine: 1227 ft
Stazioni meteo nelle vicinanze

Alt. 1227 ft 42.73 °N, 95.56 °W | Updated 11 minutes ago

Parzialmente nuvoloso
Parzialmente nuvoloso
68 °F
Sembra 68 °F
N
12
Vento Variabile Vento da NNO
Gusts 22 mph

Oggi
Massima -- | Minima -- °F
--% Possibilità di precip.
Ieri
Massima -- | Minima -- °F
Precip. -- in
7:08 AM 7:21 PM
Luna calante, 5% visible
Pressione 30.20 in
Visibilità 10.0 miglia
Nuvole Nubi sparse 5000 ft
Punto di rugiada 47 °F
Umidità 48%
Piovosità 0.00 in
Spessore del manto nevoso Non disponibile.
Raggi UV 5 fuori da 12
Polline 5.40 fuori da 12
Qualità dell'aria Non disponibile.
Flu Activity Non disponibile.
METAR KCKP 211955Z AUTO 34010G19KT 10SM SCT050 20/08 A3020 RMK AO2 T01980084

More Conditions Fewer Conditions

Pressione 30.20 in
Visibilità 10.0 miglia
Nuvole Nubi sparse 5000 ft
Punto di rugiada 47 °F
Umidità 48%
Piovosità 0.00 in
Spessore del manto nevoso Non disponibile.
Raggi UV 5 fuori da 12
Polline 5.40 fuori da 12
Qualità dell'aria Non disponibile.
Flu Activity Non disponibile.
METAR KCKP 211955Z AUTO 34010G19KT 10SM SCT050 20/08 A3020 RMK AO2 T01980084

More Conditions Fewer Conditions

10-Day Weather Forecast

Almanac

Astronomia

Sep. 21, 2014 Alba Tramonto
Ora attuale 07:08 CDT 19:21 CDT
Crepuscolo civile 06:40 CDT 19:49 CDT
Crepuscolo nautico 06:06 CDT 20:22 CDT
Crepuscolo astronomico 05:32 CDT 20:56 CDT
Luna 04:40 CDT 18:00 CDT
Estensione della luce visibile 13h 09m
Lunghezza del giorno
12h 12m
Tomorrow will be 2m 54s shorter.
Luna calante, 5% of the Moon is Illuminated
Oggi
Luna calante
Set 24
Nuovo
Ott 1
Primo quarto
Ott 8
Luna piena
Ott 15
Ultimo quarto

Gli estremi di oggi

State Highs State Lows

Community

WunderPhotos

Upload Photos

1,755,241 foto caricate!

Nearby

Profondità neve

Stazione Profondità Altitudine
Non sono state evidenziate nuove nevicate

Attività sismica

Città  Distanza Mag. Data & Ora
Non sono state riportate attività sismiche nelle vicinanze.
Minimo Magnitudo Mostrato è 2.5.

Temperature delle acque costiere

Località Temperatura
Nessun dato dalle stazioni

Stazioni meteo nelle vicinanze